x

South Brooks (46132) Wave Buoy

11:00 - Wed 28th Jan 2015 All times are PST. -8 hours from GMT.

  • Sig Wave height 5.2ft
  • Peak Period 17s
  • Wind
    7mph, 9mph gusts
  • Sea Temp 50°f
  • Luft Temp 46°f
  • Sea Pressure 1027.8mb
  • South Brooks
  • South Brooks

More Historic Weather Station data

Upgrade to MSW Pro to gain access to the past 30 days of data for over 8000 Wavebouys and Weather Stations around the globe.

Join Pro

Comparision Forecast

View Surf forecast
   
Mi 01/28 11:00 5ft 17s 7 9 mph 1027.8mb 50f 46f
10:00 5ft 17s 9 13 mph 1027.6mb 50f 46f
9:00 5ft 17s 7 11 mph 1027.7mb 50f 48f
8:00 4.5ft 17s 11 13 mph 1027.2mb 50f 49f
7:00 4.5ft 18s 13 16 mph 1027mb 50f 48f
6:00 4.5ft 18s 13 18 mph 1027.1mb 50f 49f
5:00 4.5ft 18s 16 18 mph 1026.9mb 50f 49f
4:00 4.5ft 18s 13 16 mph 1027mb 50f 49f
3:00 4.5ft 18s 13 18 mph 1027mb 50f 49f
2:00 4.5ft 18s 13 18 mph 1027.1mb 50f 49f
1:00 4ft 18s 13 16 mph 1027.6mb 50f 49f
12:00 4ft 18s 13 18 mph 1028mb 50f 48f
11:00 4ft 10s 13 16 mph 1028.2mb 50f 48f
10:00 4.5ft 12s 11 13 mph 1027.9mb 50f 48f
9:00 4.5ft 8s 11 13 mph 1027.5mb 50f 48f
8:00 4.5ft 13s 9 11 mph 1027.3mb 50f 48f
7:00 5ft 13s 7 9 mph 1027.2mb 50f 48f
6:00 5ft 10s 4 9 mph 1026.9mb 50f 48f
5:00 5.5ft 13s 4 7 mph 1026.6mb 50f 48f
4:00 5.5ft 12s 7 9 mph 1026.2mb 50f 47f
3:00 5.5ft 11s 2 4 mph 1025.9mb 50f 47f
2:00 6ft 12s 2
mph
1025.8mb 50f 47f
1:00 6ft 13s 2 4 mph 1025.3mb 50f 47f
12:00 6ft 10s 4
mph
1025mb 50f 48f
Di 01/27 11:00 6ft 10s 7 9 mph 1024.7mb 50f 48f
10:00 6ft 13s 9 11 mph 1024.5mb 50f 48f
9:00 6ft 14s 9 11 mph 1024.3mb 50f 48f
8:00 6ft 8s 11 13 mph 1023.8mb 50f 48f
7:00 7ft 8s 11 13 mph 1022.9mb 50f 48f
6:00 7ft 9s 11 13 mph 1022.3mb 50f 48f
5:00 7.5ft 9s 11 16 mph 1022mb 50f 48f
4:00 7.5ft 14s 13 16 mph 1021.9mb 51f 48f
3:00 9ft 10s 16 18 mph 1021.5mb 51f 48f
2:00 9ft 8s 13 18 mph 1021.3mb 51f 48f
1:00 9ft 9s 9 13 mph 1021mb 51f 48f
12:00 9ft 9s 9 16 mph 1020.9mb 50f 48f
11:00 9ft 8s 16 18 mph 1020.4mb 50f 48f
10:00 9ft 8s 11 13 mph 1019.5mb 51f 49f
9:00 9ft 8s 11 18 mph 1018.6mb 51f 49f
8:00 9.5ft 10s 13 18 mph 1017.7mb 51f 48f
7:00 9ft 8s 16 20 mph 1016.9mb 51f 48f
6:00 9ft 8s 16 20 mph 1016.3mb 51f 49f
5:00 8.5ft 8s 16 22 mph 1015.8mb 51f 49f
4:00 8ft 10s 18 22 mph 1015.2mb 51f 49f
3:00 8.5ft 8s 20 22 mph 1014.6mb 51f 49f
2:00 8ft 14s 18 22 mph 1013.8mb 50f 49f
1:00 8ft 8s 20 22 mph 1012.8mb 50f 49f
12:00 8.5ft 7s 20 25 mph 1011.6mb 50f 49f
Mo 01/26 11:00 9ft 7s 22 27 mph 1010.2mb 50f 49f
10:00 9ft 13s 22 27 mph 1009mb 51f 49f
9:00 9.5ft 12s 22 27 mph 1008.3mb 51f 50f
8:00 10ft 12s 29 36 mph 1007.1mb 51f 50f
7:00 9ft 6s 29 36 mph 1006.9mb 51f 50f
6:00 9ft 12s 29 38 mph 1006.7mb 51f 50f
5:00 8.5ft 14s 29 36 mph 1006.8mb 51f 50f
4:00 9.5ft 12s 27 31 mph 1007.2mb 51f 50f
3:00 9ft 12s 22 29 mph 1007.8mb 51f 51f
2:00 9ft 11s 20 25 mph 1007.3mb 51f 51f
1:00 8.5ft 12s 25 29 mph 1007.3mb 51f 51f
12:00 8.5ft 12s 22 27 mph 1008.3mb 50f 51f
11:00 8ft 11s 18 20 mph 1008.6mb 50f 52f
10:00 8ft 12s 18 22 mph 1007.3mb 50f 51f
9:00 8ft 11s 18 22 mph 1007.5mb 51f 51f
8:00 9ft 11s 13 18 mph 1007.9mb 51f 51f
7:00 9.5ft 10s 13 18 mph 1007.9mb 51f 51f
6:00 9.5ft 11s 13 18 mph 1008.5mb 51f 51f
5:00 10ft 11s 18 20 mph 1008.8mb 51f 51f
4:00 10ft 11s 18 22 mph 1009.1mb 51f 51f
3:00 10ft 11s 18 25 mph 1010.1mb 51f 51f
2:00 10ft 12s 13 18 mph 1011.4mb 51f 51f
1:00 11ft 10s 16 20 mph 1011.6mb 51f 51f
12:00 10ft 12s 16 20 mph 1012.3mb 51f 52f
So 01/25 11:00 10.5ft 12s 16 18 mph 1012.4mb 51f 51f
10:00 10ft 11s 18 22 mph 1012.7mb 51f 51f
9:00 11ft 11s 20 25 mph 1013mb 51f 51f
8:00 10.5ft 14s 20 25 mph 1013.6mb 51f 51f
7:00 11ft 11s 25 29 mph 1013.6mb 51f 51f
6:00 10.5ft 12s 29 38 mph 1013.1mb 51f 51f
5:00 11.5ft 12s 22 29 mph 1014.1mb 51f 50f
4:00 10.5ft 13s 18 22 mph 1015.3mb 51f 51f
3:00 12ft 12s 18 22 mph 1016.2mb 51f 51f
2:00 12ft 12s 20 25 mph 1016.1mb 51f 50f
1:00 12ft 12s 22 29 mph 1016.4mb 51f 51f
12:00 12.5ft 12s 22 29 mph 1017mb 51f 51f
11:00 12.5ft 12s 22 29 mph 1017.3mb 51f 51f
10:00 13ft 13s 22 27 mph 1017mb 51f 51f
9:00 13.5ft 12s 22 27 mph 1016.6mb 51f 51f